createdAt,value
2018-07-22T00:02:22.079Z,101433.27
2018-07-22T00:04:55.210Z,101431.70
2018-07-22T00:07:30.076Z,101442.31
2018-07-22T00:10:04.958Z,101433.64
2018-07-22T00:12:38.031Z,101437.89
2018-07-22T00:15:11.450Z,101440.55
2018-07-22T00:17:44.586Z,101437.83
2018-07-22T00:20:16.343Z,101438.09
2018-07-22T00:22:49.566Z,101439.97
2018-07-22T00:25:22.644Z,101437.44
2018-07-22T00:27:55.921Z,101442.28
2018-07-22T00:30:29.185Z,101443.62
2018-07-22T00:33:00.716Z,101433.11
2018-07-22T00:35:33.260Z,101435.84
2018-07-22T00:38:04.986Z,101436.16
2018-07-22T00:40:38.269Z,101437.70
2018-07-22T00:43:10.007Z,101440.02
2018-07-22T00:45:41.613Z,101439.02
2018-07-22T00:48:13.230Z,101435.95
2018-07-22T00:50:45.028Z,101432.23
2018-07-22T00:53:16.685Z,101428.19
2018-07-22T00:55:49.863Z,101425.27
2018-07-22T00:58:23.095Z,101426.64
2018-07-22T01:00:57.628Z,101432.78
2018-07-22T01:03:29.452Z,101438.45
2018-07-22T01:06:02.501Z,101429.52
2018-07-22T01:08:37.080Z,101430.23
2018-07-22T01:11:09.697Z,101426.55
2018-07-22T01:13:44.256Z,101434.88
2018-07-22T01:16:15.856Z,101431.41
2018-07-22T01:18:49.170Z,101427.56
2018-07-22T01:21:22.223Z,101423.66
2018-07-22T01:23:53.845Z,101432.33
2018-07-22T01:26:25.693Z,101431.45
2018-07-22T01:28:57.175Z,101436.67
2018-07-22T01:31:27.310Z,101430.83
2018-07-22T01:33:59.870Z,101433.80
2018-07-22T01:36:34.435Z,101437.67
2018-07-22T01:39:10.527Z,101440.81
2018-07-22T01:41:42.237Z,101435.00
2018-07-22T01:44:13.228Z,101439.23
2018-07-22T01:46:48.048Z,101437.31
2018-07-22T01:49:18.106Z,101433.33
2018-07-22T01:51:51.080Z,101434.29
2018-07-22T01:54:26.004Z,101439.17
2018-07-22T01:56:57.835Z,101434.05
2018-07-22T01:59:30.277Z,101442.89
2018-07-22T02:02:04.196Z,101436.17
2018-07-22T02:04:36.373Z,101434.19
2018-07-22T02:07:09.669Z,101443.66
2018-07-22T02:09:41.498Z,101443.45
2018-07-22T02:12:13.236Z,101438.45
2018-07-22T02:14:46.355Z,101447.69
2018-07-22T02:17:19.594Z,101446.45
2018-07-22T02:19:54.545Z,101444.63
2018-07-22T02:22:27.781Z,101451.20
2018-07-22T02:25:01.171Z,101448.05
2018-07-22T02:27:31.975Z,101447.05
2018-07-22T02:30:06.936Z,101442.70
2018-07-22T02:32:38.865Z,101446.53
2018-07-22T02:35:09.923Z,101441.05
2018-07-22T02:37:43.173Z,101447.47
2018-07-22T02:40:16.584Z,101443.34
2018-07-22T02:42:48.171Z,101449.45
2018-07-22T02:45:22.919Z,101451.54
2018-07-22T02:47:55.907Z,101457.55
2018-07-22T02:50:30.752Z,101453.39
2018-07-22T02:53:02.228Z,101449.69
2018-07-22T02:55:35.404Z,101453.15
2018-07-22T02:58:06.918Z,101458.06
2018-07-22T03:00:39.575Z,101451.23
2018-07-22T03:03:11.252Z,101456.80
2018-07-22T03:05:42.903Z,101457.89
2018-07-22T03:08:14.885Z,101455.16
2018-07-22T03:10:46.583Z,101459.38
2018-07-22T03:13:19.687Z,101457.13
2018-07-22T03:15:53.485Z,101449.30
2018-07-22T03:18:28.102Z,101449.72
2018-07-22T03:21:01.460Z,101448.02
2018-07-22T03:23:34.496Z,101451.12
2018-07-22T03:26:08.078Z,101453.64
2018-07-22T03:28:41.140Z,101463.23
2018-07-22T03:31:14.068Z,101467.33
2018-07-22T03:33:48.786Z,101469.39
2018-07-22T03:36:22.039Z,101472.75
2018-07-22T03:38:55.114Z,101476.52
2018-07-22T03:41:28.453Z,101476.42
2018-07-22T03:44:00.335Z,101478.19
2018-07-22T03:46:33.254Z,101476.52
2018-07-22T03:49:08.070Z,101480.41
2018-07-22T03:51:41.175Z,101476.85
2018-07-22T03:54:15.810Z,101471.00
2018-07-22T03:56:48.132Z,101472.27
2018-07-22T03:59:21.237Z,101472.94
2018-07-22T04:01:52.975Z,101473.23
2018-07-22T04:04:24.652Z,101476.39
2018-07-22T04:06:54.203Z,101478.84
2018-07-22T04:09:26.414Z,101481.95
2018-07-22T04:11:59.693Z,101486.48
2018-07-22T04:14:33.077Z,101483.10
2018-07-22T04:17:06.462Z,101483.63
2018-07-22T04:19:39.703Z,101486.68
2018-07-22T04:22:10.930Z,101486.84
2018-07-22T04:24:44.083Z,101488.30
2018-07-22T04:27:18.640Z,101488.02
2018-07-22T04:29:50.158Z,101487.36
2018-07-22T04:32:22.231Z,101490.89
2018-07-22T04:34:55.449Z,101486.72
2018-07-22T04:37:29.914Z,101487.07
2018-07-22T04:40:01.518Z,101487.35
2018-07-22T04:42:31.713Z,101485.45
2018-07-22T04:45:01.260Z,101491.11
2018-07-22T04:47:32.893Z,101489.63
2018-07-22T04:50:07.205Z,101493.34
2018-07-22T04:52:38.064Z,101489.62
2018-07-22T04:55:10.155Z,101487.97
2018-07-22T04:57:43.186Z,101493.20
2018-07-22T05:00:16.437Z,101500.68
2018-07-22T05:02:49.444Z,101496.33
2018-07-22T05:05:22.431Z,101499.23
2018-07-22T05:07:52.586Z,101495.73
2018-07-22T05:10:25.746Z,101501.42
2018-07-22T05:12:58.859Z,101500.95
2018-07-22T05:15:33.514Z,101502.94
2018-07-22T05:18:06.541Z,101504.28
2018-07-22T05:20:40.530Z,101509.62
2018-07-22T05:23:14.000Z,101510.79
2018-07-22T05:25:48.694Z,101511.80
2018-07-22T05:28:20.091Z,101520.66
2018-07-22T05:30:51.536Z,101517.03
2018-07-22T05:33:21.497Z,101518.56
2018-07-22T05:35:54.870Z,101522.84
2018-07-22T05:38:26.647Z,101522.90
2018-07-22T05:40:59.712Z,101522.69
2018-07-22T05:43:34.060Z,101529.45
2018-07-22T05:46:06.124Z,101526.16
2018-07-22T05:48:37.688Z,101535.31
2018-07-22T05:51:12.184Z,101531.72
2018-07-22T05:53:46.689Z,101528.46
2018-07-22T05:56:16.654Z,101532.72
2018-07-22T05:58:49.638Z,101533.80
2018-07-22T06:01:19.644Z,101540.75
2018-07-22T06:03:50.810Z,101545.16
2018-07-22T06:06:24.000Z,101550.81
2018-07-22T06:08:56.882Z,101558.50
2018-07-22T06:11:29.828Z,101548.69
2018-07-22T06:14:02.947Z,101552.81
2018-07-22T06:16:37.502Z,101553.80
2018-07-22T06:19:08.973Z,101545.70
2018-07-22T06:21:41.939Z,101554.42
2018-07-22T06:24:16.687Z,101547.06
2018-07-22T06:26:49.047Z,101553.41
2018-07-22T06:29:23.459Z,101561.63
2018-07-22T06:31:58.050Z,101550.39
2018-07-22T06:34:31.107Z,101555.34
2018-07-22T06:37:02.990Z,101559.78
2018-07-22T06:39:35.914Z,101560.78
2018-07-22T06:42:10.296Z,101560.48
2018-07-22T06:44:41.013Z,101549.62
2018-07-22T06:47:14.083Z,101556.42
2018-07-22T06:49:47.166Z,101557.74
2018-07-22T06:52:21.573Z,101561.77
2018-07-22T06:54:53.046Z,101571.14
2018-07-22T06:57:25.386Z,101565.03
2018-07-22T06:59:58.499Z,101572.78
2018-07-22T07:02:30.499Z,101563.55
2018-07-22T07:05:05.304Z,101573.09
2018-07-22T07:07:39.666Z,101568.91
2018-07-22T07:10:14.222Z,101567.22
2018-07-22T07:12:47.461Z,101573.52
2018-07-22T07:15:21.997Z,101572.50
2018-07-22T07:17:53.592Z,101569.52
2018-07-22T07:20:25.127Z,101577.79
2018-07-22T07:22:59.740Z,101573.19
2018-07-22T07:25:32.909Z,101574.72
2018-07-22T07:28:04.478Z,101573.34
2018-07-22T07:30:34.392Z,101590.56
2018-07-22T07:33:05.956Z,101581.98
2018-07-22T07:35:37.585Z,101576.92
2018-07-22T07:38:09.023Z,101572.36
2018-07-22T07:40:41.898Z,101573.08
2018-07-22T07:43:14.817Z,101578.69
2018-07-22T07:45:45.225Z,101567.33
2018-07-22T07:48:19.634Z,101569.75
2018-07-22T07:50:51.231Z,101575.31
2018-07-22T07:53:21.202Z,101575.37
2018-07-22T07:55:54.208Z,101563.56
2018-07-22T07:58:28.633Z,101560.45
2018-07-22T08:01:00.102Z,101565.54
2018-07-22T08:03:33.010Z,101559.71
2018-07-22T08:06:06.382Z,101556.81
2018-07-22T08:08:37.382Z,101547.59
2018-07-22T08:11:09.800Z,101542.14
2018-07-22T08:13:42.821Z,101540.19
2018-07-22T08:16:14.263Z,101545.50
2018-07-22T08:18:47.202Z,101545.09
2018-07-22T08:21:21.654Z,101555.05
2018-07-22T08:23:51.449Z,101557.73
2018-07-22T08:26:21.362Z,101565.13
2018-07-22T08:29:28.311Z,101561.06
2018-07-22T08:31:58.414Z,101548.23
2018-07-22T08:34:31.172Z,101562.19
2018-07-22T08:37:03.828Z,101555.56
2018-07-22T08:39:35.998Z,101552.63
2018-07-22T08:42:06.194Z,101559.74
2018-07-22T08:44:40.533Z,101559.17
2018-07-22T08:47:13.567Z,101559.03
2018-07-22T08:49:46.473Z,101562.48
2018-07-22T08:52:21.268Z,101554.26
2018-07-22T08:54:54.264Z,101558.58
2018-07-22T08:57:28.760Z,101555.80
2018-07-22T09:00:03.040Z,101564.66
2018-07-22T09:02:35.254Z,101561.74
2018-07-22T09:05:06.603Z,101560.91
2018-07-22T09:07:41.090Z,101562.00
2018-07-22T09:10:14.067Z,101567.72
2018-07-22T09:12:46.939Z,101575.87
2018-07-22T09:15:19.883Z,101571.12
2018-07-22T09:17:54.430Z,101566.72
2018-07-22T09:20:26.252Z,101565.97
2018-07-22T09:22:59.340Z,101572.83
2018-07-22T09:25:30.872Z,101576.86
2018-07-22T09:28:03.801Z,101578.95
2018-07-22T09:30:35.226Z,101578.67
2018-07-22T09:33:05.182Z,101590.16
2018-07-22T09:35:38.140Z,101587.16
2018-07-22T09:38:09.676Z,101598.75
2018-07-22T09:40:42.496Z,101596.66
2018-07-22T09:43:13.893Z,101596.27
2018-07-22T09:45:47.612Z,101606.31
2018-07-22T09:48:21.800Z,101599.08
2018-07-22T09:50:53.314Z,101616.45
2018-07-22T09:53:23.302Z,101620.37
2018-07-22T09:55:55.353Z,101614.17
2018-07-22T09:58:29.651Z,101614.05
2018-07-22T10:01:03.815Z,101606.81
2018-07-22T10:03:35.344Z,101616.11
2018-07-22T10:06:06.948Z,101610.62
2018-07-22T10:08:36.904Z,101608.52
2018-07-22T10:11:10.070Z,101602.31
2018-07-22T10:13:43.063Z,101602.37
2018-07-22T10:16:14.450Z,101599.52
2018-07-22T10:18:48.798Z,101597.33
2018-07-22T10:21:21.752Z,101594.20
2018-07-22T10:23:53.701Z,101595.13
2018-07-22T10:26:26.876Z,101597.70
2018-07-22T10:28:58.250Z,101589.45
2018-07-22T10:31:29.679Z,101590.77
2018-07-22T10:34:03.972Z,101599.11
2018-07-22T10:36:36.858Z,101596.70
2018-07-22T10:39:11.273Z,101593.08
2018-07-22T10:41:45.637Z,101585.44
2018-07-22T10:44:21.096Z,101583.38
2018-07-22T10:46:54.577Z,101587.91
2018-07-22T10:49:27.601Z,101587.19
2018-07-22T10:52:00.011Z,101576.62
2018-07-22T10:54:31.397Z,101583.34
2018-07-22T10:57:04.465Z,101581.95
2018-07-22T10:59:37.443Z,101587.84
2018-07-22T11:02:09.426Z,101570.36
2018-07-22T11:04:39.283Z,101574.19
2018-07-22T11:07:10.776Z,101572.28
2018-07-22T11:09:42.727Z,101580.39
2018-07-22T11:12:14.184Z,101578.19
2018-07-22T11:14:48.743Z,101578.68
2018-07-22T11:17:21.487Z,101579.31
2018-07-22T11:19:53.644Z,101580.78
2018-07-22T11:22:27.142Z,101568.84
2018-07-22T11:24:57.788Z,101582.50
2018-07-22T11:27:30.701Z,101569.52
2018-07-22T11:30:05.282Z,101571.16
2018-07-22T11:32:38.315Z,101577.09
2018-07-22T11:35:11.447Z,101571.28
2018-07-22T11:37:41.999Z,101568.54
2018-07-22T11:40:14.821Z,101575.31
2018-07-22T11:42:44.710Z,101573.08
2018-07-22T11:45:19.161Z,101574.89
2018-07-22T11:47:50.676Z,101579.40
2018-07-22T11:50:19.811Z,101584.55
2018-07-22T11:52:52.765Z,101576.37
2018-07-22T11:55:27.108Z,101570.62
2018-07-22T11:57:58.475Z,101566.80
2018-07-22T12:00:30.977Z,101585.14
2018-07-22T12:03:01.096Z,101582.22
2018-07-22T12:05:33.971Z,101574.12
2018-07-22T12:08:07.247Z,101573.66
2018-07-22T12:10:40.153Z,101575.73
2018-07-22T12:13:12.084Z,101568.73
2018-07-22T12:15:44.962Z,101573.08
2018-07-22T12:18:14.053Z,101570.78
2018-07-22T12:20:47.168Z,101569.52
2018-07-22T12:23:18.545Z,101562.09
2018-07-22T12:25:51.396Z,101570.16
2018-07-22T12:28:23.073Z,101552.82
2018-07-22T12:30:55.595Z,101558.09
2018-07-22T12:33:28.437Z,101548.42
2018-07-22T12:35:58.258Z,101537.75
2018-07-22T12:38:29.618Z,101539.55
2018-07-22T12:41:02.508Z,101541.13
2018-07-22T12:43:33.937Z,101546.15
2018-07-22T12:46:08.424Z,101535.27
2018-07-22T12:48:41.291Z,101533.91
2018-07-22T12:51:11.472Z,101532.31
2018-07-22T12:53:42.012Z,101542.24
2018-07-22T12:56:14.874Z,101538.47
2018-07-22T12:58:47.790Z,101531.16
2018-07-22T13:01:17.793Z,101540.59
2018-07-22T13:03:47.611Z,101525.94
2018-07-22T13:06:19.085Z,101528.47
2018-07-22T13:08:50.512Z,101517.69
2018-07-22T13:11:21.930Z,101525.22
2018-07-22T13:13:56.567Z,101523.53
2018-07-22T13:16:29.402Z,101514.28
2018-07-22T13:19:00.898Z,101510.64
2018-07-22T13:21:33.677Z,101509.64
2018-07-22T13:24:05.246Z,101517.00
2018-07-22T13:26:36.734Z,101511.81
2018-07-22T13:29:09.068Z,101517.98
2018-07-22T13:31:42.025Z,101511.27
2018-07-22T13:34:13.461Z,101518.92
2018-07-22T13:36:43.531Z,101511.14
2018-07-22T13:39:15.063Z,101520.61
2018-07-22T13:41:47.868Z,101515.91
2018-07-22T13:44:19.765Z,101519.22
2018-07-22T13:46:51.362Z,101516.86
2018-07-22T13:49:24.370Z,101514.24
2018-07-22T13:51:55.352Z,101519.00
2018-07-22T13:54:28.179Z,101514.61
2018-07-22T13:57:01.259Z,101520.76
2018-07-22T13:59:31.324Z,101527.66
2018-07-22T14:02:04.387Z,101520.40
2018-07-22T14:04:37.429Z,101533.77
2018-07-22T14:07:10.506Z,101528.88
2018-07-22T14:09:41.874Z,101535.30
2018-07-22T14:12:13.305Z,101537.96
2018-07-22T14:14:46.302Z,101532.75
2018-07-22T14:17:16.873Z,101534.94
2018-07-22T14:19:48.248Z,101532.69
2018-07-22T14:22:18.325Z,101545.91
2018-07-22T14:24:49.874Z,101535.31
2018-07-22T14:27:21.546Z,101530.96
2018-07-22T14:29:53.067Z,101534.00
2018-07-22T14:32:25.182Z,101536.73
2018-07-22T14:34:55.165Z,101533.00
2018-07-22T14:37:25.104Z,101525.86
2018-07-22T14:39:58.146Z,101524.48
2018-07-22T14:42:30.327Z,101517.01
2018-07-22T14:45:01.759Z,101536.55
2018-07-22T14:47:31.826Z,101529.96
2018-07-22T14:50:03.242Z,101530.91
2018-07-22T14:52:36.139Z,101536.02
2018-07-22T14:55:09.090Z,101532.56
2018-07-22T14:57:42.070Z,101538.54
2018-07-22T15:00:14.333Z,101542.59
2018-07-22T15:02:45.653Z,101534.79
2018-07-22T15:05:17.735Z,101542.83
2018-07-22T15:07:49.677Z,101532.94
2018-07-22T15:10:23.998Z,101543.67
2018-07-22T15:12:55.914Z,101548.77
2018-07-22T15:15:27.332Z,101555.16
2018-07-22T15:17:58.746Z,101557.70
2018-07-22T15:20:31.688Z,101561.30
2018-07-22T15:23:06.119Z,101563.55
2018-07-22T15:25:39.041Z,101560.74
2018-07-22T15:28:10.445Z,101571.44
2018-07-22T15:30:40.400Z,101572.39
2018-07-22T15:33:14.829Z,101573.44
2018-07-22T15:35:45.706Z,101581.63
2018-07-22T15:38:18.653Z,101576.33
2018-07-22T15:40:48.551Z,101564.92
2018-07-22T15:43:22.315Z,101562.73
2018-07-22T15:45:56.728Z,101566.11
2018-07-22T15:48:28.799Z,101568.94
2018-07-22T15:51:03.464Z,101560.33
2018-07-22T15:53:37.863Z,101562.89
2018-07-22T15:56:10.839Z,101560.68
2018-07-22T15:58:43.737Z,101564.76
2018-07-22T16:01:13.717Z,101567.07
2018-07-22T16:03:45.550Z,101561.53
2018-07-22T16:06:18.454Z,101558.87
2018-07-22T16:08:50.757Z,101549.67
2018-07-22T16:11:23.698Z,101562.08
2018-07-22T16:13:56.657Z,101562.81
2018-07-22T16:16:29.739Z,101557.22
2018-07-22T16:19:01.295Z,101563.07
2018-07-22T16:21:31.210Z,101564.70
2018-07-22T16:24:02.600Z,101561.88
2018-07-22T16:26:33.915Z,101561.20
2018-07-22T16:29:05.074Z,101558.10
2018-07-22T16:31:37.962Z,101558.53
2018-07-22T16:34:10.873Z,101560.83
2018-07-22T16:36:42.367Z,101559.00
2018-07-22T16:39:14.304Z,101558.02
2018-07-22T16:41:48.928Z,101568.70
2018-07-22T16:44:22.109Z,101575.08
2018-07-22T16:46:56.475Z,101561.81
2018-07-22T16:49:30.801Z,101558.61
2018-07-22T16:52:02.168Z,101557.86
2018-07-22T16:54:36.602Z,101564.21
2018-07-22T16:57:08.138Z,101558.31
2018-07-22T16:59:39.596Z,101560.06
2018-07-22T17:02:14.068Z,101555.92
2018-07-22T17:04:46.558Z,101555.45
2018-07-22T17:07:19.526Z,101557.79
2018-07-22T17:09:52.436Z,101558.59
2018-07-22T17:12:25.441Z,101560.54
2018-07-22T17:14:58.360Z,101560.52
2018-07-22T17:17:31.414Z,101554.32
2018-07-22T17:20:04.436Z,101559.97
2018-07-22T17:22:37.714Z,101558.48
2018-07-22T17:25:12.061Z,101557.03
2018-07-22T17:27:46.514Z,101560.09
2018-07-22T17:30:16.623Z,101561.14
2018-07-22T17:32:46.547Z,101560.48
2018-07-22T17:35:18.103Z,101562.58
2018-07-22T17:37:51.083Z,101554.81
2018-07-22T17:40:22.491Z,101555.52
2018-07-22T17:42:53.897Z,101552.95
2018-07-22T17:45:27.108Z,101556.08
2018-07-22T17:47:58.580Z,101558.63
2018-07-22T17:50:32.959Z,101561.97
2018-07-22T17:53:04.732Z,101551.50
2018-07-22T17:55:37.763Z,101564.41
2018-07-22T17:58:10.815Z,101568.84
2018-07-22T18:00:42.444Z,101566.53
2018-07-22T18:03:32.217Z,101564.09
2018-07-22T18:06:03.627Z,101568.00
2018-07-22T18:08:34.720Z,101572.78
2018-07-22T18:11:07.595Z,101569.39
2018-07-22T18:13:40.659Z,101569.15
2018-07-22T18:16:13.770Z,101572.81
2018-07-22T18:18:47.055Z,101566.21
2018-07-22T18:21:21.477Z,101575.33
2018-07-22T18:23:53.469Z,101573.23
2018-07-22T18:26:25.083Z,101582.10
2018-07-22T18:28:58.391Z,101581.91
2018-07-22T18:31:30.448Z,101587.04
2018-07-22T18:34:01.933Z,101585.97
2018-07-22T18:36:34.001Z,101585.84
2018-07-22T18:39:07.432Z,101591.65
2018-07-22T18:41:40.450Z,101590.59
2018-07-22T18:44:11.813Z,101593.81
2018-07-22T18:46:44.017Z,101596.87
2018-07-22T18:49:17.042Z,101598.72
2018-07-22T18:51:48.566Z,101598.15
2018-07-22T18:54:21.119Z,101597.51
2018-07-22T18:56:51.001Z,101606.09
2018-07-22T18:59:24.059Z,101610.23
2018-07-22T19:01:55.444Z,101609.06
2018-07-22T19:04:27.551Z,101609.67
2018-07-22T19:06:59.271Z,101607.49
2018-07-22T19:09:32.374Z,101609.88
2018-07-22T19:12:05.358Z,101609.41
2018-07-22T19:14:37.521Z,101612.98
2018-07-22T19:17:08.225Z,101621.80
2018-07-22T19:19:42.806Z,101624.20
2018-07-22T19:22:15.669Z,101621.22
2018-07-22T19:24:47.159Z,101620.50
2018-07-22T19:27:21.651Z,101627.77
2018-07-22T19:29:54.652Z,101626.76
2018-07-22T19:32:24.621Z,101630.19
2018-07-22T19:34:59.039Z,101635.97
2018-07-22T19:37:30.603Z,101629.52
2018-07-22T19:40:03.766Z,101636.25
2018-07-22T19:42:36.891Z,101641.69
2018-07-22T19:45:10.484Z,101639.11
2018-07-22T19:47:43.351Z,101640.88
2018-07-22T19:50:16.233Z,101630.47
2018-07-22T19:52:47.764Z,101634.84
2018-07-22T19:55:19.270Z,101642.89
2018-07-22T19:57:53.283Z,101642.33
2018-07-22T20:00:26.410Z,101647.66
2018-07-22T20:02:59.460Z,101650.22
2018-07-22T20:05:31.117Z,101649.98
2018-07-22T20:08:02.531Z,101655.44
2018-07-22T20:10:34.025Z,101660.87
2018-07-22T20:13:04.217Z,101664.81
2018-07-22T20:15:37.081Z,101669.03
2018-07-22T20:18:10.352Z,101687.63
2018-07-22T20:20:43.478Z,101691.17
2018-07-22T20:23:16.471Z,101688.92
2018-07-22T20:25:49.584Z,101692.72
2018-07-22T20:28:24.191Z,101695.30
2018-07-22T20:30:57.063Z,101696.16
2018-07-22T20:33:27.102Z,101694.81
2018-07-22T20:36:00.202Z,101696.27
2018-07-22T20:38:34.950Z,101700.23
2018-07-22T20:41:07.942Z,101709.91
2018-07-22T20:43:39.573Z,101710.91
2018-07-22T20:46:11.303Z,101714.16
2018-07-22T20:48:44.334Z,101715.73
2018-07-22T20:51:15.855Z,101712.97
2018-07-22T20:53:48.550Z,101724.61
2018-07-22T20:56:20.336Z,101719.44
2018-07-22T20:58:53.250Z,101722.86
2018-07-22T21:01:26.373Z,101726.40
2018-07-22T21:03:57.849Z,101724.22
2018-07-22T21:06:29.469Z,101723.42
2018-07-22T21:09:00.956Z,101723.81
2018-07-22T21:12:04.034Z,101723.86
2018-07-22T21:14:35.659Z,101726.14
2018-07-22T21:17:07.197Z,101731.68
2018-07-22T21:19:40.326Z,101733.69
2018-07-22T21:22:13.757Z,101736.54
2018-07-22T21:24:45.177Z,101729.64
2018-07-22T21:27:18.609Z,101732.69
2018-07-22T21:29:50.124Z,101730.73
2018-07-22T21:32:23.119Z,101738.00
2018-07-22T21:34:54.996Z,101730.61
2018-07-22T21:37:26.837Z,101736.70
2018-07-22T21:40:01.536Z,101736.09
2018-07-22T21:42:34.663Z,101738.94
2018-07-22T21:45:08.584Z,101750.50
2018-07-22T21:47:41.624Z,101748.88
2018-07-22T21:50:14.750Z,101747.53
2018-07-22T21:52:48.382Z,101747.53
2018-07-22T21:55:20.927Z,101745.34
2018-07-22T21:57:53.901Z,101756.20
2018-07-22T22:00:48.029Z,101756.63
2018-07-22T22:03:21.152Z,101749.81
2018-07-22T22:05:54.436Z,101758.12
2018-07-22T22:08:24.650Z,101755.50
2018-07-22T22:10:56.864Z,101757.05
2018-07-22T22:13:31.548Z,101754.83
2018-07-22T22:16:01.605Z,101756.10
2018-07-22T22:18:34.597Z,101758.92
2018-07-22T22:21:06.309Z,101755.42
2018-07-22T22:23:37.737Z,101755.87
2018-07-22T22:26:10.960Z,101759.41
2018-07-22T22:28:42.421Z,101762.20
2018-07-22T22:31:15.359Z,101761.74
2018-07-22T22:33:49.896Z,101758.73
2018-07-22T22:36:23.844Z,101757.03
2018-07-22T22:38:59.023Z,101762.61
2018-07-22T22:41:33.546Z,101761.11
2018-07-22T22:44:03.555Z,101764.83
2018-07-22T22:46:35.054Z,101768.46
2018-07-22T22:49:10.213Z,101766.17
2018-07-22T22:51:43.312Z,101770.34
2018-07-22T22:54:16.511Z,101770.84
2018-07-22T22:56:46.531Z,101761.16
2018-07-22T22:59:24.855Z,101765.83
2018-07-22T23:01:57.968Z,101765.78
2018-07-22T23:04:29.521Z,101768.53
2018-07-22T23:07:02.146Z,101767.82
2018-07-22T23:09:35.184Z,101773.58
2018-07-22T23:12:08.188Z,101772.02
2018-07-22T23:14:39.840Z,101768.09
2018-07-22T23:17:14.544Z,101770.30
2018-07-22T23:19:47.705Z,101770.75
2018-07-22T23:22:20.891Z,101770.38
2018-07-22T23:24:55.562Z,101773.83
2018-07-22T23:27:28.599Z,101773.18
2018-07-22T23:29:58.707Z,101773.70
2018-07-22T23:32:31.934Z,101770.45
2018-07-22T23:35:04.972Z,101772.73
2018-07-22T23:37:39.480Z,101767.90
2018-07-22T23:40:10.251Z,101770.45
2018-07-22T23:42:42.034Z,101773.41
2018-07-22T23:45:15.146Z,101778.91
2018-07-22T23:47:48.386Z,101772.44
2018-07-22T23:50:22.257Z,101775.87
2018-07-22T23:52:55.426Z,101776.95
2018-07-22T23:55:27.306Z,101773.72
2018-07-22T23:57:58.802Z,101769.02
